createdAt,value
2018-05-07T00:02:17.061Z,18.80
2018-05-07T00:04:44.691Z,18.78
2018-05-07T00:07:11.378Z,18.72
2018-05-07T00:09:38.773Z,18.69
2018-05-07T00:12:05.449Z,18.67
2018-05-07T00:14:32.123Z,18.64
2018-05-07T00:16:58.810Z,18.56
2018-05-07T00:19:25.508Z,18.28
2018-05-07T00:21:52.149Z,18.23
2018-05-07T00:24:18.877Z,18.21
2018-05-07T00:26:46.271Z,18.40
2018-05-07T00:29:12.899Z,18.38
2018-05-07T00:31:39.532Z,18.39
2018-05-07T00:34:12.345Z,18.20
2018-05-07T00:36:39.003Z,18.18
2018-05-07T00:39:06.415Z,18.21
2018-05-07T00:41:33.060Z,18.03
2018-05-07T00:43:59.713Z,17.89
2018-05-07T00:46:26.373Z,17.67
2018-05-07T00:48:53.325Z,17.57
2018-05-07T00:51:20.859Z,17.62
2018-05-07T00:53:47.509Z,17.70
2018-05-07T00:56:14.189Z,17.64
2018-05-07T00:58:41.601Z,17.47
2018-05-07T01:01:08.260Z,17.44
2018-05-07T01:03:34.890Z,17.35
2018-05-07T01:06:01.598Z,17.27
2018-05-07T01:08:28.269Z,17.34
2018-05-07T01:10:54.933Z,17.27
2018-05-07T01:13:22.329Z,17.35
2018-05-07T01:15:48.962Z,17.22
2018-05-07T01:18:15.603Z,17.10
2018-05-07T01:20:42.270Z,16.97
2018-05-07T01:23:09.020Z,16.99
2018-05-07T01:25:35.663Z,17.02
2018-05-07T01:28:02.464Z,17.14
2018-05-07T01:30:29.226Z,17.23
2018-05-07T01:32:56.017Z,17.33
2018-05-07T01:35:23.359Z,17.37
2018-05-07T01:37:50.770Z,17.20
2018-05-07T01:40:17.425Z,17.13
2018-05-07T01:42:44.085Z,17.07
2018-05-07T01:45:10.806Z,17.12
2018-05-07T01:47:37.448Z,17.17
2018-05-07T01:50:04.094Z,16.99
2018-05-07T01:52:30.805Z,17.13
2018-05-07T01:54:57.441Z,17.18
2018-05-07T01:57:24.269Z,17.12
2018-05-07T01:59:50.924Z,17.05
2018-05-07T02:02:17.586Z,17.14
2018-05-07T02:04:44.359Z,17.13
2018-05-07T02:07:11.768Z,17.21
2018-05-07T02:09:38.396Z,16.99
2018-05-07T02:12:05.051Z,17.06
2018-05-07T02:14:31.819Z,16.97
2018-05-07T02:16:58.604Z,17.02
2018-05-07T02:19:25.362Z,17.07
2018-05-07T02:21:51.989Z,16.87
2018-05-07T02:24:18.657Z,16.85
2018-05-07T02:26:45.503Z,16.85
2018-05-07T02:29:12.352Z,16.68
2018-05-07T02:31:38.974Z,16.78
2018-05-07T02:34:05.717Z,16.74
2018-05-07T02:36:32.338Z,16.81
2018-05-07T02:38:59.150Z,16.70
2018-05-07T02:41:25.753Z,16.72
2018-05-07T02:43:52.380Z,16.78
2018-05-07T02:46:19.912Z,16.69
2018-05-07T02:48:46.684Z,16.82
2018-05-07T02:51:13.332Z,16.77
2018-05-07T02:53:39.967Z,16.84
2018-05-07T02:56:08.111Z,16.74
2018-05-07T02:58:34.720Z,16.72
2018-05-07T03:01:01.360Z,16.69
2018-05-07T03:03:28.011Z,16.55
2018-05-07T03:05:54.638Z,16.53
2018-05-07T03:08:21.630Z,16.46
2018-05-07T03:10:48.387Z,16.33
2018-05-07T03:13:15.106Z,16.27
2018-05-07T03:15:41.804Z,16.39
2018-05-07T03:18:08.469Z,16.34
2018-05-07T03:20:35.156Z,16.25
2018-05-07T03:23:02.569Z,16.17
2018-05-07T03:25:29.170Z,16.38
2018-05-07T03:27:55.848Z,16.38
2018-05-07T03:30:22.502Z,16.34
2018-05-07T03:32:49.109Z,16.33
2018-05-07T03:35:15.728Z,16.24
2018-05-07T03:37:42.702Z,16.29
2018-05-07T03:40:09.389Z,16.24
2018-05-07T03:42:36.897Z,16.23
2018-05-07T03:45:03.739Z,16.24
2018-05-07T03:47:30.413Z,16.18
2018-05-07T03:49:57.042Z,16.23
2018-05-07T03:52:23.737Z,16.09
2018-05-07T03:54:50.394Z,16.16
2018-05-07T03:57:17.131Z,16.19
2018-05-07T03:59:43.837Z,16.12
2018-05-07T04:02:10.423Z,16.15
2018-05-07T04:04:37.148Z,16.17
2018-05-07T04:07:04.723Z,16.03
2018-05-07T04:09:31.819Z,16.13
2018-05-07T04:11:59.172Z,16.10
2018-05-07T04:14:26.586Z,16.12
2018-05-07T04:17:10.284Z,16.04
2018-05-07T04:19:55.391Z,16.10
2018-05-07T04:22:40.461Z,16.17
2018-05-07T04:25:07.133Z,16.13
2018-05-07T04:27:33.776Z,16.20
2018-05-07T04:30:00.396Z,16.29
2018-05-07T04:32:27.033Z,16.24
2018-05-07T04:34:53.651Z,16.25
2018-05-07T04:37:20.442Z,16.27
2018-05-07T04:39:47.865Z,16.38
2018-05-07T04:42:14.612Z,16.39
2018-05-07T04:44:41.443Z,16.47
2018-05-07T04:47:08.068Z,16.56
2018-05-07T04:49:34.740Z,16.63
2018-05-07T04:52:01.596Z,16.66
2018-05-07T04:54:28.403Z,16.82
2018-05-07T04:56:55.064Z,16.79
2018-05-07T04:59:21.704Z,16.93
2018-05-07T05:01:48.346Z,17.15
2018-05-07T05:04:15.305Z,17.15
2018-05-07T05:06:42.719Z,17.20
2018-05-07T05:09:09.471Z,17.42
2018-05-07T05:11:36.097Z,17.39
2018-05-07T05:14:03.013Z,17.39
2018-05-07T05:16:29.691Z,17.43
2018-05-07T05:18:56.380Z,17.35
2018-05-07T05:21:23.769Z,17.44
2018-05-07T05:23:50.522Z,17.57
2018-05-07T05:26:17.162Z,17.54
2018-05-07T05:28:43.802Z,17.55
2018-05-07T05:31:10.472Z,17.49
2018-05-07T05:33:37.234Z,17.75
2018-05-07T05:36:04.634Z,18.10
2018-05-07T05:38:31.328Z,18.45
2018-05-07T05:41:13.917Z,18.15
2018-05-07T05:43:41.030Z,18.08
2018-05-07T05:46:07.836Z,17.95
2018-05-07T05:48:35.231Z,18.00
2018-05-07T05:51:01.877Z,17.84
2018-05-07T05:53:33.069Z,17.80
2018-05-07T05:55:59.934Z,17.86
2018-05-07T05:58:26.605Z,18.12
2018-05-07T06:00:53.268Z,18.16
2018-05-07T06:03:19.991Z,18.16
2018-05-07T06:05:46.632Z,18.24
2018-05-07T06:08:13.260Z,18.13
2018-05-07T06:10:40.034Z,18.12
2018-05-07T06:13:06.701Z,18.18
2018-05-07T06:15:34.215Z,18.36
2018-05-07T06:18:01.033Z,18.19
2018-05-07T06:20:27.816Z,18.06
2018-05-07T06:22:54.444Z,18.05
2018-05-07T06:25:21.215Z,18.19
2018-05-07T06:27:48.632Z,18.33
2018-05-07T06:30:15.310Z,18.31
2018-05-07T06:32:41.975Z,18.42
2018-05-07T06:35:08.607Z,18.49
2018-05-07T06:37:35.975Z,18.68
2018-05-07T06:40:02.604Z,18.73
2018-05-07T06:42:29.335Z,18.95
2018-05-07T06:44:56.840Z,19.04
2018-05-07T06:47:23.480Z,19.10
2018-05-07T06:49:50.253Z,19.25
2018-05-07T06:52:16.903Z,19.30
2018-05-07T06:54:43.541Z,19.48
2018-05-07T06:57:10.926Z,19.56
2018-05-07T06:59:37.684Z,19.31
2018-05-07T07:02:04.395Z,19.25
2018-05-07T07:04:30.956Z,19.46
2018-05-07T07:06:57.592Z,19.59
2018-05-07T07:09:24.267Z,19.82
2018-05-07T07:11:50.925Z,19.81
2018-05-07T07:14:22.597Z,19.86
2018-05-07T07:16:50.001Z,19.88
2018-05-07T07:19:16.772Z,19.96
2018-05-07T07:21:43.408Z,19.93
2018-05-07T07:24:10.112Z,19.92
2018-05-07T07:26:36.728Z,19.93
2018-05-07T07:29:03.418Z,20.01
2018-05-07T07:31:30.055Z,20.13
2018-05-07T07:33:56.777Z,20.28
2018-05-07T07:36:24.141Z,20.23
2018-05-07T07:38:50.821Z,20.30
2018-05-07T07:41:18.287Z,20.29
2018-05-07T07:43:45.793Z,20.50
2018-05-07T07:46:12.548Z,20.63
2018-05-07T07:48:39.668Z,20.81
2018-05-07T07:51:06.332Z,20.98
2018-05-07T07:53:33.007Z,21.13
2018-05-07T07:55:59.649Z,21.22
2018-05-07T07:58:27.029Z,21.25
2018-05-07T08:00:53.672Z,20.87
2018-05-07T08:03:20.361Z,20.88
2018-05-07T08:05:46.991Z,21.07
2018-05-07T08:08:13.767Z,21.29
2018-05-07T08:10:41.129Z,21.42
2018-05-07T08:13:07.796Z,21.44
2018-05-07T08:15:34.426Z,21.57
2018-05-07T08:18:01.053Z,21.74
2018-05-07T08:20:27.703Z,21.81
2018-05-07T08:22:54.392Z,21.72
2018-05-07T08:25:21.775Z,21.76
2018-05-07T08:27:49.162Z,21.78
2018-05-07T08:30:15.978Z,21.93
2018-05-07T08:32:42.805Z,22.05
2018-05-07T08:35:10.169Z,21.97
2018-05-07T08:37:37.592Z,22.07
2018-05-07T08:40:04.253Z,22.26
2018-05-07T08:42:31.674Z,22.24
2018-05-07T08:44:58.318Z,22.37
2018-05-07T08:47:24.960Z,22.35
2018-05-07T08:49:51.566Z,22.58
2018-05-07T08:52:18.174Z,22.57
2018-05-07T08:54:44.825Z,22.57
2018-05-07T08:57:11.721Z,22.68
2018-05-07T08:59:38.421Z,22.86
2018-05-07T09:02:05.102Z,22.87
2018-05-07T09:04:31.700Z,23.02
2018-05-07T09:06:58.321Z,23.22
2018-05-07T09:09:24.974Z,23.08
2018-05-07T09:11:51.630Z,22.95
2018-05-07T09:14:18.265Z,23.02
2018-05-07T09:16:44.905Z,23.16
2018-05-07T09:19:11.577Z,23.27
2018-05-07T09:21:42.261Z,23.58
2018-05-07T09:24:08.914Z,23.54
2018-05-07T09:26:35.556Z,23.41
2018-05-07T09:29:02.200Z,23.41
2018-05-07T09:31:28.907Z,23.44
2018-05-07T09:33:56.275Z,23.58
2018-05-07T09:36:22.929Z,23.60
2018-05-07T09:38:49.587Z,23.75
2018-05-07T09:41:16.322Z,23.71
2018-05-07T09:43:43.679Z,23.75
2018-05-07T09:46:10.488Z,23.82
2018-05-07T09:48:37.159Z,23.95
2018-05-07T09:51:03.859Z,24.14
2018-05-07T09:53:30.635Z,23.94
2018-05-07T09:55:57.299Z,23.74
2018-05-07T09:58:23.961Z,23.80
2018-05-07T10:00:51.332Z,23.88
2018-05-07T10:03:18.056Z,23.94
2018-05-07T10:05:45.418Z,24.00
2018-05-07T10:08:12.790Z,24.14
2018-05-07T10:10:39.481Z,24.20
2018-05-07T10:13:06.124Z,24.20
2018-05-07T10:15:32.865Z,24.36
2018-05-07T10:17:59.508Z,24.40
2018-05-07T10:20:26.619Z,24.52
2018-05-07T10:22:53.384Z,24.37
2018-05-07T10:25:20.858Z,24.36
2018-05-07T10:27:47.560Z,24.34
2018-05-07T10:30:14.211Z,24.41
2018-05-07T10:32:41.035Z,24.76
2018-05-07T10:35:07.708Z,24.86
2018-05-07T10:37:35.818Z,24.62
2018-05-07T10:40:02.695Z,24.59
2018-05-07T10:42:29.360Z,24.50
2018-05-07T10:44:56.167Z,24.47
2018-05-07T10:47:22.798Z,24.57
2018-05-07T10:49:49.613Z,24.63
2018-05-07T10:52:17.021Z,24.59
2018-05-07T10:54:43.631Z,24.79
2018-05-07T10:57:10.436Z,24.72
2018-05-07T10:59:37.997Z,24.61
2018-05-07T11:02:04.667Z,24.66
2018-05-07T11:04:31.285Z,24.75
2018-05-07T11:06:58.983Z,24.63
2018-05-07T11:09:26.361Z,24.58
2018-05-07T11:12:02.792Z,24.68
2018-05-07T11:14:30.276Z,24.71
2018-05-07T11:16:56.929Z,24.73
2018-05-07T11:19:23.631Z,24.89
2018-05-07T11:21:50.327Z,25.01
2018-05-07T11:24:18.443Z,25.06
2018-05-07T11:26:45.145Z,25.29
2018-05-07T11:29:17.625Z,25.27
2018-05-07T11:31:44.768Z,25.27
2018-05-07T11:34:11.445Z,25.25
2018-05-07T11:36:38.151Z,25.34
2018-05-07T11:39:06.311Z,25.34
2018-05-07T11:41:33.097Z,25.28
2018-05-07T11:43:59.723Z,25.21
2018-05-07T11:46:27.146Z,25.19
2018-05-07T11:48:53.785Z,25.10
2018-05-07T11:51:20.499Z,25.23
2018-05-07T11:53:47.131Z,25.49
2018-05-07T11:56:13.950Z,25.50
2018-05-07T11:58:41.401Z,25.48
2018-05-07T12:01:08.801Z,25.43
2018-05-07T12:03:35.460Z,25.47
2018-05-07T12:06:03.082Z,25.47
2018-05-07T12:08:29.776Z,25.44
2018-05-07T12:10:56.469Z,25.53
2018-05-07T12:13:23.119Z,25.49
2018-05-07T12:15:49.942Z,25.56
2018-05-07T12:18:16.675Z,25.61
2018-05-07T12:20:43.354Z,25.62
2018-05-07T12:23:10.110Z,25.50
2018-05-07T12:25:36.698Z,25.41
2018-05-07T12:28:03.311Z,25.62
2018-05-07T12:30:30.711Z,25.77
2018-05-07T12:32:57.365Z,25.87
2018-05-07T12:35:24.041Z,26.03
2018-05-07T12:37:51.445Z,25.95
2018-05-07T12:40:18.067Z,26.10
2018-05-07T12:42:44.759Z,26.20
2018-05-07T12:45:11.402Z,26.18
2018-05-07T12:47:38.041Z,26.27
2018-05-07T12:50:06.362Z,26.48
2018-05-07T12:52:33.173Z,26.61
2018-05-07T12:55:00.700Z,26.71
2018-05-07T12:57:27.353Z,27.00
2018-05-07T12:59:54.035Z,26.83
2018-05-07T13:02:20.704Z,26.67
2018-05-07T13:04:47.410Z,26.62
2018-05-07T13:07:14.073Z,26.85
2018-05-07T13:09:40.750Z,26.98
2018-05-07T13:12:07.437Z,27.24
2018-05-07T13:14:34.815Z,27.50
2018-05-07T13:17:01.646Z,27.52
2018-05-07T13:19:28.309Z,27.46
2018-05-07T13:21:54.989Z,27.67
2018-05-07T13:24:22.358Z,27.86
2018-05-07T13:26:49.159Z,28.11
2018-05-07T13:29:15.841Z,28.29
2018-05-07T13:31:42.550Z,28.57
2018-05-07T13:34:09.166Z,28.53
2018-05-07T13:36:35.801Z,28.50
2018-05-07T13:39:02.517Z,28.20
2018-05-07T13:41:29.183Z,28.59
2018-05-07T13:43:55.885Z,28.74
2018-05-07T13:46:22.515Z,29.01
2018-05-07T13:48:49.181Z,29.02
2018-05-07T13:51:16.453Z,29.25
2018-05-07T13:53:43.175Z,29.72
2018-05-07T13:56:09.875Z,30.20
2018-05-07T13:58:37.241Z,30.65
2018-05-07T14:01:04.004Z,30.98
2018-05-07T14:03:30.640Z,30.88
2018-05-07T14:05:58.196Z,30.21
2018-05-07T14:08:24.850Z,29.67
2018-05-07T14:10:51.604Z,30.07
2018-05-07T14:13:18.262Z,30.14
2018-05-07T14:15:44.917Z,30.37
2018-05-07T14:18:12.335Z,30.70
2018-05-07T14:20:39.056Z,30.50
2018-05-07T14:23:05.724Z,30.84
2018-05-07T14:25:32.417Z,31.24
2018-05-07T14:27:59.084Z,31.60
2018-05-07T14:30:25.732Z,30.99
2018-05-07T14:32:52.393Z,30.21
2018-05-07T14:35:19.018Z,30.38
2018-05-07T14:37:45.629Z,30.66
2018-05-07T14:40:12.315Z,30.86
2018-05-07T14:42:38.944Z,30.90
2018-05-07T14:45:05.619Z,31.11
2018-05-07T14:47:32.997Z,31.42
2018-05-07T14:49:59.657Z,31.57
2018-05-07T14:52:26.988Z,31.87
2018-05-07T14:54:53.700Z,31.77
2018-05-07T14:57:21.140Z,32.11
2018-05-07T14:59:47.795Z,32.13
2018-05-07T15:02:15.193Z,31.60
2018-05-07T15:04:42.008Z,31.56
2018-05-07T15:07:08.614Z,31.15
2018-05-07T15:09:35.464Z,31.04
2018-05-07T15:12:02.098Z,30.34
2018-05-07T15:14:28.819Z,30.36
2018-05-07T15:16:55.637Z,30.01
2018-05-07T15:19:22.436Z,29.60
2018-05-07T15:21:50.079Z,29.18
2018-05-07T15:24:16.885Z,28.89
2018-05-07T15:26:43.697Z,28.63
2018-05-07T15:29:11.141Z,28.39
2018-05-07T15:31:37.827Z,28.10
2018-05-07T15:34:04.558Z,27.92
2018-05-07T15:36:31.202Z,27.87
2018-05-07T15:41:26.059Z,27.89
2018-05-07T15:43:53.708Z,27.72
2018-05-07T15:46:20.253Z,27.56
2018-05-07T15:48:46.965Z,27.53
2018-05-07T15:51:13.664Z,27.60
2018-05-07T15:53:40.473Z,27.66
2018-05-07T15:56:07.889Z,27.55
2018-05-07T15:58:34.516Z,27.51
2018-05-07T16:01:01.262Z,27.56
2018-05-07T16:03:27.958Z,27.56
2018-05-07T16:05:54.665Z,27.42
2018-05-07T16:08:21.440Z,27.33
2018-05-07T16:10:48.108Z,27.33
2018-05-07T16:13:14.759Z,27.46
2018-05-07T16:15:41.415Z,27.25
2018-05-07T16:18:08.046Z,27.14
2018-05-07T16:20:34.806Z,27.09
2018-05-07T16:23:01.595Z,27.03
2018-05-07T16:25:29.045Z,27.10
2018-05-07T16:27:56.653Z,27.09
2018-05-07T16:30:23.305Z,27.05
2018-05-07T16:32:50.148Z,27.08
2018-05-07T16:35:16.826Z,27.10
2018-05-07T16:37:44.263Z,27.09
2018-05-07T16:40:10.857Z,26.98
2018-05-07T16:42:37.575Z,26.92
2018-05-07T16:45:04.170Z,26.92
2018-05-07T16:47:30.865Z,26.86
2018-05-07T16:49:57.521Z,26.84
2018-05-07T16:52:24.347Z,26.90
2018-05-07T16:54:51.024Z,26.87
2018-05-07T16:57:17.672Z,26.87
2018-05-07T16:59:45.743Z,26.89
2018-05-07T17:02:12.346Z,26.83
2018-05-07T17:04:38.995Z,26.87
2018-05-07T17:07:05.793Z,26.84
2018-05-07T17:09:33.256Z,26.76
2018-05-07T17:12:00.710Z,26.69
2018-05-07T17:14:28.142Z,26.76
2018-05-07T17:16:54.798Z,26.66
2018-05-07T17:19:23.214Z,26.64
2018-05-07T17:21:49.945Z,26.65
2018-05-07T17:24:16.849Z,26.59
2018-05-07T17:26:43.659Z,26.54
2018-05-07T17:29:10.397Z,26.58
2018-05-07T17:31:37.180Z,26.53
2018-05-07T17:34:04.042Z,26.54
2018-05-07T17:36:31.592Z,26.49
2018-05-07T17:39:00.263Z,26.42
2018-05-07T17:41:26.971Z,26.38
2018-05-07T17:43:53.761Z,26.35
2018-05-07T17:49:30.453Z,26.23
2018-05-07T17:51:57.848Z,26.19
2018-05-07T17:54:24.580Z,26.16
2018-05-07T17:56:51.288Z,26.10
2018-05-07T17:59:17.942Z,26.05
2018-05-07T18:01:45.461Z,25.99
2018-05-07T18:04:12.281Z,25.94
2018-05-07T18:06:39.145Z,25.91
2018-05-07T18:09:05.859Z,25.90
2018-05-07T18:11:32.833Z,25.86
2018-05-07T18:13:59.731Z,25.82
2018-05-07T18:16:26.459Z,25.77
2018-05-07T18:18:54.406Z,25.71
2018-05-07T18:21:21.130Z,25.71
2018-05-07T18:23:47.765Z,25.72
2018-05-07T18:26:14.472Z,25.50
2018-05-07T18:28:41.945Z,25.45
2018-05-07T18:31:08.673Z,25.49
2018-05-07T18:33:35.534Z,25.46
2018-05-07T18:36:02.198Z,25.44
2018-05-07T18:38:28.994Z,25.39
2018-05-07T18:40:55.767Z,25.27
2018-05-07T18:43:22.425Z,25.20
2018-05-07T18:45:49.212Z,25.17
2018-05-07T18:48:15.762Z,25.12
2018-05-07T18:50:42.417Z,25.13
2018-05-07T18:53:09.097Z,25.09
2018-05-07T18:55:36.515Z,25.08
2018-05-07T18:58:03.189Z,25.01
2018-05-07T19:00:30.600Z,24.92
2018-05-07T19:02:57.284Z,24.91
2018-05-07T19:05:24.754Z,24.84
2018-05-07T19:07:52.169Z,24.82
2018-05-07T19:10:18.828Z,24.74
2018-05-07T19:12:45.574Z,24.69
2018-05-07T19:15:12.510Z,24.66
2018-05-07T19:17:39.324Z,24.52
2018-05-07T19:20:06.638Z,24.53
2018-05-07T19:22:33.345Z,24.45
2018-05-07T19:25:00.767Z,24.37
2018-05-07T19:27:27.517Z,24.41
2018-05-07T19:29:54.204Z,24.34
2018-05-07T19:32:20.845Z,24.28
2018-05-07T19:34:48.402Z,24.21
2018-05-07T19:37:15.818Z,24.19
2018-05-07T19:39:42.703Z,24.08
2018-05-07T19:42:10.138Z,24.05
2018-05-07T19:44:36.806Z,23.98
2018-05-07T19:47:04.209Z,23.98
2018-05-07T19:49:30.914Z,23.92
2018-05-07T19:51:58.694Z,23.89
2018-05-07T19:54:25.530Z,23.85
2018-05-07T19:56:52.186Z,23.75
2018-05-07T19:59:18.873Z,23.79
2018-05-07T20:01:46.361Z,23.72
2018-05-07T20:04:13.062Z,23.73
2018-05-07T20:06:39.805Z,23.65
2018-05-07T20:09:06.475Z,23.66
2018-05-07T20:11:33.185Z,23.58
2018-05-07T20:13:59.861Z,23.54
2018-05-07T20:16:26.609Z,23.58
2018-05-07T20:18:53.323Z,23.56
2018-05-07T20:21:20.732Z,23.47
2018-05-07T20:23:47.539Z,23.40
2018-05-07T20:26:14.232Z,23.44
2018-05-07T20:28:40.895Z,23.30
2018-05-07T20:31:08.256Z,23.28
2018-05-07T20:33:34.971Z,23.30
2018-05-07T20:36:01.629Z,23.18
2018-05-07T20:38:29.061Z,23.18
2018-05-07T20:40:55.754Z,23.11
2018-05-07T20:43:22.419Z,23.08
2018-05-07T20:45:49.163Z,23.00
2018-05-07T20:48:15.870Z,22.87
2018-05-07T20:50:42.458Z,22.89
2018-05-07T20:53:09.113Z,22.95
2018-05-07T20:55:37.296Z,22.91
2018-05-07T20:58:04.670Z,22.75
2018-05-07T21:00:31.345Z,22.67
2018-05-07T21:02:58.053Z,22.73
2018-05-07T21:05:24.657Z,22.64
2018-05-07T21:07:51.347Z,22.61
2018-05-07T21:10:18.181Z,22.72
2018-05-07T21:12:44.836Z,22.57
2018-05-07T21:15:11.493Z,22.49
2018-05-07T21:17:38.131Z,22.53
2018-05-07T21:20:05.018Z,22.41
2018-05-07T21:22:32.534Z,22.29
2018-05-07T21:24:59.378Z,22.20
2018-05-07T21:27:25.979Z,22.14
2018-05-07T21:29:52.683Z,22.09
2018-05-07T21:32:20.078Z,22.07
2018-05-07T21:34:46.750Z,22.18
2018-05-07T21:37:13.424Z,22.08
2018-05-07T21:39:40.972Z,22.08
2018-05-07T21:42:07.778Z,21.90
2018-05-07T21:44:34.402Z,21.85
2018-05-07T21:47:01.155Z,21.80
2018-05-07T21:49:27.856Z,21.75
2018-05-07T21:51:55.353Z,21.81
2018-05-07T21:54:22.034Z,21.68
2018-05-07T21:56:49.400Z,21.57
2018-05-07T21:59:16.806Z,21.52
2018-05-07T22:01:43.466Z,21.45
2018-05-07T22:04:10.166Z,21.46
2018-05-07T22:06:36.852Z,21.38
2018-05-07T22:09:03.616Z,21.32
2018-05-07T22:11:31.001Z,21.36
2018-05-07T22:13:57.639Z,21.35
2018-05-07T22:16:24.338Z,21.30
2018-05-07T22:18:50.987Z,21.16
2018-05-07T22:21:18.400Z,21.27
2018-05-07T22:23:45.039Z,21.24
2018-05-07T22:26:11.754Z,21.36
2018-05-07T22:28:39.178Z,21.31
2018-05-07T22:31:06.754Z,21.10
2018-05-07T22:33:34.160Z,21.16
2018-05-07T22:36:00.829Z,20.94
2018-05-07T22:38:28.228Z,20.88
2018-05-07T22:40:54.881Z,20.93
2018-05-07T22:43:21.656Z,20.99
2018-05-07T22:45:49.032Z,20.83
2018-05-07T22:48:16.408Z,20.89
2018-05-07T22:50:43.075Z,20.94
2018-05-07T22:53:09.724Z,20.79
2018-05-07T22:55:36.368Z,20.69
2018-05-07T22:58:03.023Z,20.68
2018-05-07T23:00:29.708Z,20.71
2018-05-07T23:02:56.321Z,20.69
2018-05-07T23:05:23.710Z,20.70
2018-05-07T23:07:50.430Z,20.52
2018-05-07T23:10:17.155Z,20.42
2018-05-07T23:12:44.535Z,20.34
2018-05-07T23:15:11.180Z,20.26
2018-05-07T23:17:38.288Z,20.20
2018-05-07T23:20:05.678Z,20.13
2018-05-07T23:22:32.365Z,20.04
2018-05-07T23:24:59.013Z,20.04
2018-05-07T23:27:25.660Z,20.11
2018-05-07T23:29:52.311Z,20.15
2018-05-07T23:32:19.903Z,20.16
2018-05-07T23:34:46.727Z,20.14
2018-05-07T23:37:13.622Z,20.11
2018-05-07T23:39:40.286Z,19.99
2018-05-07T23:42:07.689Z,19.95
2018-05-07T23:44:34.339Z,19.75
2018-05-07T23:47:00.983Z,19.67
2018-05-07T23:49:27.623Z,19.49
2018-05-07T23:51:54.311Z,19.50
2018-05-07T23:54:21.864Z,19.62
2018-05-07T23:56:49.423Z,19.64
2018-05-07T23:59:16.870Z,19.66
